createdAt,value
2019-04-05T00:00:15.863Z,0.00
2019-04-05T00:01:15.786Z,0.00
2019-04-05T00:02:15.783Z,0.00
2019-04-05T00:03:15.792Z,0.00
2019-04-05T00:04:15.757Z,0.00
2019-04-05T00:05:15.744Z,0.00
2019-04-05T00:06:15.737Z,0.00
2019-04-05T00:07:15.722Z,0.00
2019-04-05T00:08:15.716Z,0.00
2019-04-05T00:09:15.761Z,0.00
2019-04-05T00:10:15.692Z,0.00
2019-04-05T00:11:15.694Z,0.00
2019-04-05T00:12:15.671Z,0.00
2019-04-05T00:13:15.663Z,0.00
2019-04-05T00:14:15.654Z,0.00
2019-04-05T00:15:16.177Z,0.00
2019-04-05T00:16:15.628Z,0.00
2019-04-05T00:17:15.615Z,0.00
2019-04-05T00:18:15.600Z,0.00
2019-04-05T00:19:15.664Z,0.00
2019-04-05T00:20:15.585Z,0.00
2019-04-05T00:21:15.573Z,0.00
2019-04-05T00:22:15.561Z,0.00
2019-04-05T00:23:15.547Z,0.00
2019-04-05T00:24:15.538Z,0.00
2019-04-05T00:25:15.551Z,0.00
2019-04-05T00:26:15.516Z,0.00
2019-04-05T00:27:15.507Z,0.00
2019-04-05T00:28:15.506Z,0.00
2019-04-05T00:29:15.544Z,0.00
2019-04-05T00:30:15.470Z,0.00
2019-04-05T00:31:15.467Z,0.00
2019-04-05T00:32:15.489Z,0.00
2019-04-05T00:33:15.441Z,0.00
2019-04-05T00:34:15.427Z,0.00
2019-04-05T00:35:15.432Z,0.00
2019-04-05T00:36:15.406Z,0.00
2019-04-05T00:37:15.395Z,0.00
2019-04-05T00:38:15.390Z,0.00
2019-04-05T00:39:15.379Z,0.00
2019-04-05T00:40:15.411Z,0.00
2019-04-05T00:41:15.361Z,0.00
2019-04-05T00:42:15.408Z,0.00
2019-04-05T00:43:15.334Z,0.00
2019-04-05T00:44:15.326Z,0.00
2019-04-05T00:45:27.210Z,0.00
2019-04-05T00:46:16.309Z,0.00
2019-04-05T00:47:15.289Z,0.00
2019-04-05T00:48:15.281Z,0.00
2019-04-05T00:49:15.270Z,0.00
2019-04-05T00:50:15.332Z,0.00
2019-04-05T00:51:15.246Z,0.00
2019-04-05T00:52:15.233Z,0.00
2019-04-05T00:53:15.230Z,0.00
2019-04-05T00:54:15.210Z,0.00
2019-04-05T00:55:15.212Z,0.00
2019-04-05T00:56:15.206Z,0.00
2019-04-05T00:57:15.225Z,0.00
2019-04-05T00:58:15.171Z,0.00
2019-04-05T00:59:15.157Z,0.00
2019-04-05T01:00:15.146Z,0.00
2019-04-05T01:01:15.141Z,0.00
2019-04-05T01:02:15.129Z,0.00
2019-04-05T01:03:15.127Z,0.00
2019-04-05T01:04:15.117Z,0.00
2019-04-05T01:05:15.097Z,0.00
2019-04-05T01:06:15.141Z,0.00
2019-04-05T01:07:15.078Z,0.00
2019-04-05T01:08:15.062Z,0.00
2019-04-05T01:09:15.058Z,0.00
2019-04-05T01:10:15.041Z,0.00
2019-04-05T01:11:15.079Z,0.00
2019-04-05T01:12:15.064Z,0.00
2019-04-05T01:13:15.009Z,0.00
2019-04-05T01:14:15.054Z,0.00
2019-04-05T01:15:14.987Z,0.00
2019-04-05T01:16:14.972Z,0.00
2019-04-05T01:17:24.494Z,0.00
2019-04-05T01:18:15.948Z,0.00
2019-04-05T01:19:14.985Z,0.00
2019-04-05T01:20:14.929Z,0.00
2019-04-05T01:21:14.923Z,0.00
2019-04-05T01:22:14.908Z,0.00
2019-04-05T01:23:14.921Z,0.00
2019-04-05T01:24:14.891Z,0.00
2019-04-05T01:25:14.882Z,0.00
2019-04-05T01:26:14.862Z,0.00
2019-04-05T01:27:14.856Z,0.00
2019-04-05T01:28:14.841Z,0.00
2019-04-05T01:29:14.875Z,0.00
2019-04-05T01:30:14.819Z,0.00
2019-04-05T01:31:14.814Z,0.00
2019-04-05T01:32:14.811Z,0.00
2019-04-05T01:33:14.793Z,0.00
2019-04-05T01:34:14.778Z,0.00
2019-04-05T01:35:14.826Z,0.00
2019-04-05T01:36:14.757Z,0.00
2019-04-05T01:37:14.744Z,0.00
2019-04-05T01:38:14.738Z,0.00
2019-04-05T01:39:14.723Z,0.00
2019-04-05T01:40:14.717Z,0.00
2019-04-05T01:41:14.778Z,0.00
2019-04-05T01:42:14.692Z,0.00
2019-04-05T01:43:14.691Z,0.00
2019-04-05T01:44:14.744Z,0.00
2019-04-05T01:45:14.660Z,0.00
2019-04-05T01:46:14.645Z,0.00
2019-04-05T01:47:14.641Z,0.00
2019-04-05T01:48:14.627Z,0.00
2019-04-05T01:49:14.653Z,0.00
2019-04-05T01:50:14.612Z,0.00
2019-04-05T01:51:14.590Z,0.00
2019-04-05T01:52:14.641Z,0.00
2019-04-05T01:53:14.568Z,0.00
2019-04-05T01:54:14.561Z,0.00
2019-04-05T01:55:14.621Z,0.00
2019-04-05T01:56:14.540Z,0.00
2019-04-05T01:57:14.528Z,0.00
2019-04-05T01:58:14.514Z,0.00
2019-04-05T01:59:14.511Z,0.00
2019-04-05T02:00:14.503Z,0.00
2019-04-05T02:01:14.495Z,0.00
2019-04-05T02:02:14.476Z,0.00
2019-04-05T02:03:14.460Z,0.00
2019-04-05T02:04:14.451Z,0.00
2019-04-05T02:05:14.441Z,0.00
2019-04-05T02:06:14.483Z,0.00
2019-04-05T02:07:14.419Z,0.00
2019-04-05T02:08:14.419Z,0.00
2019-04-05T02:09:14.398Z,0.00
2019-04-05T02:10:14.383Z,0.00
2019-04-05T02:11:14.425Z,0.00
2019-04-05T02:12:14.364Z,0.00
2019-04-05T02:13:14.356Z,0.00
2019-04-05T02:14:14.337Z,0.00
2019-04-05T02:15:14.325Z,0.00
2019-04-05T02:16:14.373Z,0.00
2019-04-05T02:17:14.316Z,0.00
2019-04-05T02:18:14.293Z,0.00
2019-04-05T02:19:14.284Z,0.00
2019-04-05T02:20:14.281Z,0.00
2019-04-05T02:21:14.314Z,0.00
2019-04-05T02:22:14.264Z,0.00
2019-04-05T02:23:14.238Z,0.00
2019-04-05T02:24:14.234Z,0.00
2019-04-05T02:25:14.220Z,0.00
2019-04-05T02:26:14.246Z,0.00
2019-04-05T02:27:14.194Z,0.00
2019-04-05T02:28:14.185Z,0.00
2019-04-05T02:29:14.172Z,0.00
2019-04-05T02:30:14.166Z,0.00
2019-04-05T02:31:14.158Z,0.00
2019-04-05T02:32:14.201Z,0.00
2019-04-05T02:33:14.167Z,0.00
2019-04-05T02:34:14.124Z,0.00
2019-04-05T02:35:14.115Z,0.00
2019-04-05T02:36:14.101Z,0.00
2019-04-05T02:37:14.145Z,0.00
2019-04-05T02:38:14.128Z,0.00
2019-04-05T02:39:14.065Z,0.00
2019-04-05T02:40:14.059Z,0.00
2019-04-05T02:41:14.041Z,0.00
2019-04-05T02:42:14.036Z,0.00
2019-04-05T02:43:14.060Z,0.00
2019-04-05T02:44:14.028Z,0.00
2019-04-05T02:45:14.007Z,0.00
2019-04-05T02:46:23.507Z,0.00
2019-04-05T02:47:14.983Z,0.00
2019-04-05T02:48:13.991Z,0.00
2019-04-05T02:49:13.953Z,0.00
2019-04-05T02:50:13.940Z,0.00
2019-04-05T02:51:13.931Z,0.00
2019-04-05T02:52:13.926Z,0.00
2019-04-05T02:53:13.908Z,0.00
2019-04-05T02:54:13.916Z,0.00
2019-04-05T02:55:13.891Z,0.00
2019-04-05T02:56:13.885Z,0.00
2019-04-05T02:57:13.866Z,0.00
2019-04-05T02:58:13.853Z,0.00
2019-04-05T02:59:14.095Z,0.00
2019-04-05T03:00:13.839Z,0.00
2019-04-05T03:01:13.828Z,0.00
2019-04-05T03:02:13.815Z,0.00
2019-04-05T03:03:13.800Z,0.00
2019-04-05T03:04:13.797Z,0.00
2019-04-05T03:05:13.794Z,0.00
2019-04-05T03:06:13.785Z,0.00
2019-04-05T03:07:13.760Z,0.00
2019-04-05T03:08:13.748Z,0.00
2019-04-05T03:09:13.739Z,0.00
2019-04-05T03:10:13.780Z,0.00
2019-04-05T03:11:13.713Z,0.00
2019-04-05T03:12:13.704Z,0.00
2019-04-05T03:13:13.695Z,0.00
2019-04-05T03:14:13.738Z,0.00
2019-04-05T03:15:13.668Z,0.00
2019-04-05T03:16:13.664Z,0.00
2019-04-05T03:17:13.651Z,0.00
2019-04-05T03:18:13.644Z,0.00
2019-04-05T03:19:13.630Z,0.00
2019-04-05T03:20:13.693Z,0.00
2019-04-05T03:21:13.609Z,0.00
2019-04-05T03:22:13.602Z,0.00
2019-04-05T03:23:13.583Z,0.00
2019-04-05T03:24:13.573Z,0.00
2019-04-05T03:25:13.621Z,0.00
2019-04-05T03:26:13.567Z,0.00
2019-04-05T03:27:13.545Z,0.00
2019-04-05T03:28:13.532Z,0.00
2019-04-05T03:29:13.523Z,0.00
2019-04-05T03:30:13.596Z,0.00
2019-04-05T03:31:13.528Z,0.00
2019-04-05T03:32:13.494Z,0.00
2019-04-05T03:33:13.487Z,0.00
2019-04-05T03:34:13.463Z,0.00
2019-04-05T03:35:13.453Z,0.00
2019-04-05T03:36:13.497Z,0.00
2019-04-05T03:37:13.428Z,0.00
2019-04-05T03:38:13.427Z,0.00
2019-04-05T03:39:13.406Z,0.00
2019-04-05T03:40:13.393Z,0.00
2019-04-05T03:41:13.438Z,0.00
2019-04-05T03:42:13.384Z,0.00
2019-04-05T03:43:13.366Z,0.00
2019-04-05T03:44:13.355Z,0.00
2019-04-05T03:45:13.345Z,0.00
2019-04-05T03:46:13.395Z,0.00
2019-04-05T03:47:13.337Z,0.00
2019-04-05T03:48:13.308Z,0.00
2019-04-05T03:49:13.294Z,0.00
2019-04-05T03:50:13.288Z,0.00
2019-04-05T03:51:13.273Z,0.00
2019-04-05T03:52:13.373Z,0.00
2019-04-05T03:53:13.266Z,0.00
2019-04-05T03:54:13.246Z,0.00
2019-04-05T03:55:13.228Z,0.00
2019-04-05T03:56:13.224Z,0.00
2019-04-05T03:57:13.209Z,0.00
2019-04-05T03:58:13.213Z,0.00
2019-04-05T03:59:13.185Z,0.00
2019-04-05T04:00:13.193Z,0.00
2019-04-05T04:01:13.172Z,0.00
2019-04-05T04:02:13.159Z,0.00
2019-04-05T04:03:14.027Z,0.00
2019-04-05T04:04:13.137Z,4.00
2019-04-05T04:05:13.131Z,4.00
2019-04-05T04:06:13.110Z,0.00
2019-04-05T04:07:13.102Z,0.00
2019-04-05T04:08:13.097Z,4.00
2019-04-05T04:09:13.082Z,4.00
2019-04-05T04:10:13.072Z,4.00
2019-04-05T04:11:13.061Z,4.00
2019-04-05T04:12:13.059Z,4.00
2019-04-05T04:13:13.046Z,8.00
2019-04-05T04:14:13.026Z,8.00
2019-04-05T04:15:14.111Z,8.00
2019-04-05T04:16:13.004Z,8.00
2019-04-05T04:17:13.659Z,12.00
2019-04-05T04:18:12.990Z,16.00
2019-04-05T04:19:12.990Z,16.00
2019-04-05T04:20:12.962Z,16.00
2019-04-05T04:21:12.947Z,20.00
2019-04-05T04:22:12.940Z,24.00
2019-04-05T04:23:12.982Z,28.00
2019-04-05T04:24:12.918Z,32.00
2019-04-05T04:25:12.907Z,36.00
2019-04-05T04:26:12.933Z,40.00
2019-04-05T04:27:12.886Z,44.00
2019-04-05T04:28:12.953Z,52.00
2019-04-05T04:29:12.867Z,60.00
2019-04-05T04:30:12.848Z,64.00
2019-04-05T04:31:12.837Z,68.00
2019-04-05T04:32:12.830Z,76.00
2019-04-05T04:33:12.823Z,88.00
2019-04-05T04:34:12.882Z,96.00
2019-04-05T04:35:12.797Z,104.00
2019-04-05T04:36:13.317Z,116.00
2019-04-05T04:37:12.771Z,128.00
2019-04-05T04:38:12.764Z,140.00
2019-04-05T04:39:12.760Z,152.00
2019-04-05T04:40:12.759Z,164.00
2019-04-05T04:41:12.728Z,176.00
2019-04-05T04:42:12.718Z,192.00
2019-04-05T04:43:12.710Z,208.00
2019-04-05T04:44:12.751Z,224.00
2019-04-05T04:45:13.057Z,236.00
2019-04-05T04:46:12.678Z,256.00
2019-04-05T04:47:25.463Z,272.00
2019-04-05T04:48:13.657Z,288.00
2019-04-05T04:49:12.675Z,308.00
2019-04-05T04:50:12.643Z,328.00
2019-04-05T04:51:12.620Z,352.00
2019-04-05T04:52:12.647Z,372.00
2019-04-05T04:53:12.598Z,396.00
2019-04-05T04:54:12.641Z,420.00
2019-04-05T04:55:12.606Z,444.00
2019-04-05T04:56:12.567Z,464.00
2019-04-05T04:57:12.549Z,492.00
2019-04-05T04:58:12.543Z,520.00
2019-04-05T04:59:12.528Z,544.00
2019-04-05T05:00:12.550Z,568.00
2019-04-05T05:01:12.532Z,596.00
2019-04-05T05:02:12.508Z,624.00
2019-04-05T05:03:12.490Z,656.00
2019-04-05T05:04:12.478Z,684.00
2019-04-05T05:05:12.467Z,716.00
2019-04-05T05:06:12.511Z,744.00
2019-04-05T05:07:12.446Z,776.00
2019-04-05T05:08:12.434Z,808.00
2019-04-05T05:09:12.418Z,840.00
2019-04-05T05:10:12.423Z,872.00
2019-04-05T05:11:14.885Z,900.00
2019-04-05T05:12:12.387Z,932.00
2019-04-05T05:13:12.376Z,964.00
2019-04-05T05:14:12.361Z,992.00
2019-04-05T05:15:12.351Z,1020.00
2019-04-05T05:16:12.353Z,1048.00
2019-04-05T05:17:12.335Z,1076.00
2019-04-05T05:18:12.317Z,1108.00
2019-04-05T05:19:12.310Z,1140.00
2019-04-05T05:20:12.333Z,1168.00
2019-04-05T05:21:12.354Z,1200.00
2019-04-05T05:22:12.274Z,1232.00
2019-04-05T05:23:12.295Z,1264.00
2019-04-05T05:24:12.300Z,1296.00
2019-04-05T05:25:12.274Z,1324.00
2019-04-05T05:26:12.233Z,1356.00
2019-04-05T05:27:12.228Z,1388.00
2019-04-05T05:28:12.210Z,1416.00
2019-04-05T05:29:12.203Z,1452.00
2019-04-05T05:30:12.197Z,1480.00
2019-04-05T05:31:12.253Z,1512.00
2019-04-05T05:32:12.170Z,1544.00
2019-04-05T05:33:12.160Z,1572.00
2019-04-05T05:34:12.147Z,1600.00
2019-04-05T05:35:12.130Z,1636.00
2019-04-05T05:36:12.124Z,1664.00
2019-04-05T05:37:12.167Z,1692.00
2019-04-05T05:38:12.111Z,1720.00
2019-04-05T05:39:12.145Z,1744.00
2019-04-05T05:40:12.084Z,1768.00
2019-04-05T05:41:12.072Z,1788.00
2019-04-05T05:42:12.057Z,1812.00
2019-04-05T05:43:12.045Z,1840.00
2019-04-05T05:44:12.093Z,1860.00
2019-04-05T05:45:12.027Z,1880.00
2019-04-05T05:46:12.012Z,1908.00
2019-04-05T05:47:12.039Z,1928.00
2019-04-05T05:48:12.027Z,1952.00
2019-04-05T05:49:11.999Z,1976.00
2019-04-05T05:50:11.990Z,2000.00
2019-04-05T05:51:11.963Z,2028.00
2019-04-05T05:52:12.015Z,2052.00
2019-04-05T05:53:11.947Z,2080.00
2019-04-05T05:54:11.954Z,2104.00
2019-04-05T05:55:11.913Z,2140.00
2019-04-05T05:56:11.912Z,2172.00
2019-04-05T05:57:11.888Z,2204.00
2019-04-05T05:58:11.877Z,2228.00
2019-04-05T05:59:11.908Z,2260.00
2019-04-05T06:00:11.860Z,2284.00
2019-04-05T06:01:11.856Z,2308.00
2019-04-05T06:02:11.847Z,2348.00
2019-04-05T06:03:12.079Z,2380.00
2019-04-05T06:04:12.852Z,2412.00
2019-04-05T06:05:11.847Z,2444.00
2019-04-05T06:06:11.793Z,2480.00
2019-04-05T06:07:11.786Z,2512.00
2019-04-05T06:08:11.771Z,2536.00
2019-04-05T06:09:11.765Z,2556.00
2019-04-05T06:10:11.752Z,2576.00
2019-04-05T06:11:11.751Z,2608.00
2019-04-05T06:12:11.727Z,2648.00
2019-04-05T06:13:11.717Z,2692.00
2019-04-05T06:14:11.700Z,2728.00
2019-04-05T06:15:11.695Z,2768.00
2019-04-05T06:16:11.698Z,2800.00
2019-04-05T06:17:11.689Z,2840.00
2019-04-05T06:18:12.752Z,2872.00
2019-04-05T06:19:11.651Z,2896.00
2019-04-05T06:20:11.635Z,2928.00
2019-04-05T06:21:11.631Z,2968.00
2019-04-05T06:22:11.617Z,3012.00
2019-04-05T06:23:11.612Z,3064.00
2019-04-05T06:24:11.590Z,3112.00
2019-04-05T06:25:11.584Z,3168.00
2019-04-05T06:26:11.575Z,3212.00
2019-04-05T06:27:11.566Z,3260.00
2019-04-05T06:28:11.576Z,3300.00
2019-04-05T06:29:11.541Z,3340.00
2019-04-05T06:30:11.529Z,3376.00
2019-04-05T06:31:11.514Z,3404.00
2019-04-05T06:32:11.502Z,3460.00
2019-04-05T06:33:11.502Z,3520.00
2019-04-05T06:34:11.485Z,3592.00
2019-04-05T06:35:11.475Z,3676.00
2019-04-05T06:36:11.465Z,3780.00
2019-04-05T06:37:11.456Z,3884.00
2019-04-05T06:38:11.493Z,3984.00
2019-04-05T06:39:11.435Z,4124.00
2019-04-05T06:40:11.419Z,4308.00
2019-04-05T06:41:11.402Z,4528.00
2019-04-05T06:42:11.410Z,4784.00
2019-04-05T06:43:11.390Z,5056.00
2019-04-05T06:44:11.390Z,5352.00
2019-04-05T06:45:11.370Z,5696.00
2019-04-05T06:46:11.354Z,6180.00
2019-04-05T06:47:11.387Z,6752.00
2019-04-05T06:48:18.895Z,7268.00
2019-04-05T06:49:12.313Z,7596.00
2019-04-05T06:50:11.305Z,7744.00
2019-04-05T06:51:11.294Z,7792.00
2019-04-05T06:52:11.286Z,7824.00
2019-04-05T06:53:11.289Z,8212.00
2019-04-05T06:54:11.278Z,8668.00
2019-04-05T06:55:11.252Z,8756.00
2019-04-05T06:56:11.246Z,8596.00
2019-04-05T06:57:11.251Z,8640.00
2019-04-05T06:58:11.229Z,8880.00
2019-04-05T06:59:11.231Z,8968.00
2019-04-05T07:00:11.208Z,8984.00
2019-04-05T07:01:11.191Z,8852.00
2019-04-05T07:02:11.177Z,8540.00
2019-04-05T07:03:13.568Z,8240.00
2019-04-05T07:04:11.162Z,8580.00
2019-04-05T07:05:11.201Z,9464.00
2019-04-05T07:06:11.138Z,10280.00
2019-04-05T07:07:11.160Z,10704.00
2019-04-05T07:08:11.111Z,11012.00
2019-04-05T07:09:11.147Z,11264.00
2019-04-05T07:10:11.135Z,11424.00
2019-04-05T07:11:11.107Z,11700.00
2019-04-05T07:12:11.066Z,11780.00
2019-04-05T07:13:11.060Z,11320.00
2019-04-05T07:14:11.041Z,11460.00
2019-04-05T07:15:11.043Z,10624.00
2019-04-05T07:16:11.302Z,10992.00
2019-04-05T07:17:11.017Z,11404.00
2019-04-05T07:18:11.005Z,11356.00
2019-04-05T07:19:10.989Z,8272.00
2019-04-05T07:20:10.977Z,7856.00
2019-04-05T07:21:10.967Z,6788.00
2019-04-05T07:22:10.968Z,11056.00
2019-04-05T07:23:10.951Z,11264.00
2019-04-05T07:24:10.943Z,10868.00
2019-04-05T07:25:10.929Z,10464.00
2019-04-05T07:26:10.917Z,10252.00
2019-04-05T07:27:10.967Z,9204.00
2019-04-05T07:28:10.896Z,7472.00
2019-04-05T07:29:10.883Z,6828.00
2019-04-05T07:30:10.897Z,7832.00
2019-04-05T07:31:10.866Z,9756.00
2019-04-05T07:32:10.850Z,9788.00
2019-04-05T07:33:10.847Z,9868.00
2019-04-05T07:34:10.833Z,7820.00
2019-04-05T07:35:10.814Z,7800.00
2019-04-05T07:36:10.828Z,6600.00
2019-04-05T07:37:10.825Z,6248.00
2019-04-05T07:38:10.784Z,5936.00
2019-04-05T07:39:10.770Z,5976.00
2019-04-05T07:40:10.793Z,5864.00
2019-04-05T07:41:10.753Z,6044.00
2019-04-05T07:42:10.757Z,5696.00
2019-04-05T07:43:10.736Z,6332.00
2019-04-05T07:44:10.712Z,7388.00
2019-04-05T07:45:10.705Z,7304.00
2019-04-05T07:46:10.692Z,5740.00
2019-04-05T07:47:10.701Z,5872.00
2019-04-05T07:48:10.674Z,5280.00
2019-04-05T07:49:10.666Z,5288.00
2019-04-05T07:50:10.653Z,5288.00
2019-04-05T07:51:10.649Z,5184.00
2019-04-05T07:52:12.909Z,4340.00
2019-04-05T07:53:10.617Z,4080.00
2019-04-05T07:54:10.603Z,4564.00
2019-04-05T07:55:10.599Z,4004.00
2019-04-05T07:56:10.593Z,4180.00
2019-04-05T07:57:10.581Z,4272.00
2019-04-05T07:58:10.568Z,3840.00
2019-04-05T07:59:10.604Z,4116.00
2019-04-05T08:00:10.544Z,3940.00
2019-04-05T08:01:10.526Z,4076.00
2019-04-05T08:02:10.517Z,3956.00
2019-04-05T08:03:10.565Z,3540.00
2019-04-05T08:04:10.555Z,3428.00
2019-04-05T08:05:10.484Z,3232.00
2019-04-05T08:06:10.563Z,2860.00
2019-04-05T08:07:10.460Z,2644.00
2019-04-05T08:08:10.453Z,2456.00
2019-04-05T08:09:10.455Z,2572.00
2019-04-05T08:10:10.438Z,2688.00
2019-04-05T08:11:10.423Z,2708.00
2019-04-05T08:12:10.454Z,2716.00
2019-04-05T08:13:10.397Z,2836.00
2019-04-05T08:14:10.391Z,2940.00
2019-04-05T08:15:10.378Z,3080.00
2019-04-05T08:16:10.375Z,3492.00
2019-04-05T08:17:10.349Z,3520.00
2019-04-05T08:18:10.400Z,3572.00
2019-04-05T08:19:10.408Z,3568.00
2019-04-05T08:20:10.322Z,3480.00
2019-04-05T08:21:10.309Z,3264.00
2019-04-05T08:22:10.299Z,3408.00
2019-04-05T08:23:10.284Z,3480.00
2019-04-05T08:24:10.279Z,3424.00
2019-04-05T08:25:10.355Z,3324.00
2019-04-05T08:26:10.255Z,3340.00
2019-04-05T08:27:10.315Z,3272.00
2019-04-05T08:28:10.230Z,3320.00
2019-04-05T08:29:10.246Z,3332.00
2019-04-05T08:30:10.214Z,3468.00
2019-04-05T08:31:11.106Z,3492.00
2019-04-05T08:32:14.743Z,3496.00
2019-04-05T08:33:10.179Z,3428.00
2019-04-05T08:34:10.163Z,3492.00
2019-04-05T08:35:10.175Z,3372.00
2019-04-05T08:36:10.179Z,3284.00
2019-04-05T08:37:10.147Z,3132.00
2019-04-05T08:38:10.123Z,3116.00
2019-04-05T08:39:10.120Z,3144.00
2019-04-05T08:40:10.099Z,3192.00
2019-04-05T08:41:10.145Z,3188.00
2019-04-05T08:42:10.890Z,3312.00
2019-04-05T08:43:10.069Z,3448.00
2019-04-05T08:44:10.062Z,3464.00
2019-04-05T08:45:10.047Z,3448.00
2019-04-05T08:46:10.123Z,3368.00
2019-04-05T08:47:10.083Z,3708.00
2019-04-05T08:48:10.015Z,3812.00
2019-04-05T08:49:11.456Z,3752.00
2019-04-05T08:50:09.997Z,3628.00
2019-04-05T08:51:09.982Z,3420.00
2019-04-05T08:52:09.967Z,3340.00
2019-04-05T08:53:10.019Z,3420.00
2019-04-05T08:54:09.943Z,3624.00
2019-04-05T08:55:09.937Z,3696.00
2019-04-05T08:56:09.931Z,3520.00
2019-04-05T08:57:09.911Z,3312.00
2019-04-05T08:58:09.960Z,3352.00
2019-04-05T08:59:09.898Z,3444.00
2019-04-05T09:00:09.879Z,3632.00
2019-04-05T09:01:09.872Z,3808.00
2019-04-05T09:02:09.860Z,4292.00
2019-04-05T09:03:11.927Z,4556.00
2019-04-05T09:04:09.836Z,4372.00
2019-04-05T09:05:09.868Z,4116.00
2019-04-05T09:06:09.816Z,3964.00
2019-04-05T09:07:09.806Z,4208.00
2019-04-05T09:08:09.793Z,5432.00
2019-04-05T09:09:09.860Z,4492.00
2019-04-05T09:10:09.774Z,4492.00
2019-04-05T09:11:09.769Z,4532.00
2019-04-05T09:12:09.755Z,4436.00
2019-04-05T09:13:09.776Z,4520.00
2019-04-05T09:14:09.728Z,4508.00
2019-04-05T09:15:09.783Z,4260.00
2019-04-05T09:16:11.717Z,4256.00
2019-04-05T09:17:09.698Z,3956.00
2019-04-05T09:18:09.685Z,3784.00
2019-04-05T09:19:22.760Z,3836.00
2019-04-05T09:20:10.661Z,3760.00
2019-04-05T09:21:10.179Z,3720.00
2019-04-05T09:22:09.642Z,3432.00
2019-04-05T09:23:09.627Z,3388.00
2019-04-05T09:24:09.613Z,3380.00
2019-04-05T09:25:09.664Z,3224.00
2019-04-05T09:26:09.590Z,3152.00
2019-04-05T09:27:09.659Z,3116.00
2019-04-05T09:28:09.577Z,2996.00
2019-04-05T09:29:09.606Z,3292.00
2019-04-05T09:30:09.547Z,3356.00
2019-04-05T09:31:09.593Z,3428.00
2019-04-05T09:32:09.526Z,3520.00
2019-04-05T09:33:09.524Z,3208.00
2019-04-05T09:34:09.519Z,3484.00
2019-04-05T09:35:09.522Z,3332.00
2019-04-05T09:36:09.494Z,3472.00
2019-04-05T09:37:09.471Z,3332.00
2019-04-05T09:38:09.470Z,3248.00
2019-04-05T09:39:14.977Z,3204.00
2019-04-05T09:40:10.521Z,3440.00
2019-04-05T09:41:09.506Z,3396.00
2019-04-05T09:42:09.417Z,3712.00
2019-04-05T09:43:09.429Z,3416.00
2019-04-05T09:44:09.397Z,3112.00
2019-04-05T09:45:09.388Z,3020.00
2019-04-05T09:46:09.383Z,2796.00
2019-04-05T09:47:09.418Z,2852.00
2019-04-05T09:48:09.354Z,3100.00
2019-04-05T09:49:09.338Z,3056.00
2019-04-05T09:50:09.326Z,2936.00
2019-04-05T09:51:09.395Z,2872.00
2019-04-05T09:52:09.306Z,2740.00
2019-04-05T09:53:09.399Z,2640.00
2019-04-05T09:54:09.281Z,2528.00
2019-04-05T09:55:09.277Z,2712.00
2019-04-05T09:56:09.264Z,2668.00
2019-04-05T09:57:09.253Z,2788.00
2019-04-05T09:58:10.238Z,2804.00
2019-04-05T09:59:09.292Z,2852.00
2019-04-05T10:00:09.221Z,2724.00
2019-04-05T10:01:09.285Z,2452.00
2019-04-05T10:02:09.199Z,2400.00
2019-04-05T10:03:09.189Z,2640.00
2019-04-05T10:04:09.172Z,2456.00
2019-04-05T10:05:09.164Z,2572.00
2019-04-05T10:06:09.155Z,2804.00
2019-04-05T10:07:09.157Z,2668.00
2019-04-05T10:08:09.144Z,2688.00
2019-04-05T10:09:09.179Z,2548.00
2019-04-05T10:10:09.105Z,2440.00
2019-04-05T10:11:09.103Z,2448.00
2019-04-05T10:12:09.186Z,2604.00
2019-04-05T10:13:09.919Z,2680.00
2019-04-05T10:14:09.075Z,2608.00
2019-04-05T10:15:09.067Z,2524.00
2019-04-05T10:16:09.048Z,2656.00
2019-04-05T10:17:09.035Z,2600.00
2019-04-05T10:18:09.083Z,2644.00
2019-04-05T10:19:09.015Z,2608.00
2019-04-05T10:20:09.079Z,2576.00
2019-04-05T10:21:08.987Z,2348.00
2019-04-05T10:22:08.985Z,2336.00
2019-04-05T10:23:08.968Z,2348.00
2019-04-05T10:24:09.056Z,2316.00
2019-04-05T10:25:08.946Z,2436.00
2019-04-05T10:26:08.935Z,2620.00
2019-04-05T10:27:08.922Z,2564.00
2019-04-05T10:28:08.914Z,2688.00
2019-04-05T10:29:08.898Z,2344.00
2019-04-05T10:30:08.946Z,2344.00
2019-04-05T10:31:08.888Z,2304.00
2019-04-05T10:32:08.873Z,2480.00
2019-04-05T10:33:08.862Z,2636.00
2019-04-05T10:34:08.845Z,2548.00
2019-04-05T10:35:08.919Z,2676.00
2019-04-05T10:36:08.853Z,2796.00
2019-04-05T10:37:08.822Z,3012.00
2019-04-05T10:38:08.807Z,3040.00
2019-04-05T10:39:08.795Z,3032.00
2019-04-05T10:40:08.863Z,2992.00
2019-04-05T10:41:08.776Z,2744.00
2019-04-05T10:42:08.781Z,2612.00
2019-04-05T10:43:08.754Z,2528.00
2019-04-05T10:44:08.739Z,2752.00
2019-04-05T10:45:08.728Z,2676.00
2019-04-05T10:46:08.775Z,2940.00
2019-04-05T10:47:08.763Z,3052.00
2019-04-05T10:48:08.695Z,2768.00
2019-04-05T10:49:08.682Z,2732.00
2019-04-05T10:50:08.671Z,2608.00
2019-04-05T10:51:08.670Z,2540.00
2019-04-05T10:52:08.655Z,2696.00
2019-04-05T10:53:08.722Z,2752.00
2019-04-05T10:54:09.567Z,2684.00
2019-04-05T10:55:08.621Z,2596.00
2019-04-05T10:56:08.605Z,2732.00
2019-04-05T10:57:08.598Z,2824.00
2019-04-05T10:58:08.649Z,2844.00
2019-04-05T10:59:08.573Z,3032.00
2019-04-05T11:00:08.570Z,3112.00
2019-04-05T11:01:08.563Z,3076.00
2019-04-05T11:02:08.540Z,3248.00
2019-04-05T11:03:08.588Z,3264.00
2019-04-05T11:04:08.524Z,3180.00
2019-04-05T11:05:08.512Z,3240.00
2019-04-05T11:06:08.557Z,3188.00
2019-04-05T11:07:08.490Z,3220.00
2019-04-05T11:08:08.536Z,3232.00
2019-04-05T11:09:08.525Z,3188.00
2019-04-05T11:10:08.454Z,3056.00
2019-04-05T11:11:08.505Z,2976.00
2019-04-05T11:12:08.798Z,2872.00
2019-04-05T11:13:08.428Z,3116.00
2019-04-05T11:14:13.851Z,3576.00
2019-04-05T11:15:09.404Z,3956.00
2019-04-05T11:16:08.427Z,3824.00
2019-04-05T11:17:08.382Z,3660.00
2019-04-05T11:18:08.376Z,3452.00
2019-04-05T11:19:08.366Z,3384.00
2019-04-05T11:20:20.660Z,3272.00
2019-04-05T11:21:09.331Z,3364.00
2019-04-05T11:22:08.331Z,3428.00
2019-04-05T11:23:08.316Z,3468.00
2019-04-05T11:24:08.301Z,3428.00
2019-04-05T11:25:08.329Z,3324.00
2019-04-05T11:26:08.361Z,3240.00
2019-04-05T11:27:08.268Z,3360.00
2019-04-05T11:28:08.271Z,3704.00
2019-04-05T11:29:08.248Z,3756.00
2019-04-05T11:30:08.245Z,3508.00
2019-04-05T11:31:08.225Z,3672.00
2019-04-05T11:32:08.272Z,4340.00
2019-04-05T11:33:08.201Z,4412.00
2019-04-05T11:34:08.194Z,4260.00
2019-04-05T11:35:08.183Z,4560.00
2019-04-05T11:36:08.185Z,4380.00
2019-04-05T11:37:08.180Z,4704.00
2019-04-05T11:38:08.146Z,4720.00
2019-04-05T11:39:08.141Z,4948.00
2019-04-05T11:40:08.142Z,4844.00
2019-04-05T11:41:08.163Z,4340.00
2019-04-05T11:42:08.165Z,4800.00
2019-04-05T11:43:08.098Z,5456.00
2019-04-05T11:44:08.089Z,6012.00
2019-04-05T11:45:08.071Z,5148.00
2019-04-05T11:46:08.063Z,5484.00
2019-04-05T11:47:08.107Z,5548.00
2019-04-05T11:48:08.037Z,6860.00
2019-04-05T11:49:08.052Z,6436.00
2019-04-05T11:50:08.036Z,6248.00
2019-04-05T11:51:08.004Z,6304.00
2019-04-05T11:52:08.055Z,6564.00
2019-04-05T11:53:08.041Z,7152.00
2019-04-05T11:54:07.977Z,6764.00
2019-04-05T11:55:07.967Z,7144.00
2019-04-05T11:56:14.401Z,7196.00
2019-04-05T11:57:08.939Z,6888.00
2019-04-05T11:58:08.095Z,7332.00
2019-04-05T11:59:07.923Z,7872.00
2019-04-05T12:00:07.936Z,7700.00
2019-04-05T12:01:07.893Z,8224.00
2019-04-05T12:02:07.882Z,8652.00
2019-04-05T12:03:09.661Z,8748.00
2019-04-05T12:04:07.930Z,8512.00
2019-04-05T12:05:07.848Z,7804.00
2019-04-05T12:06:07.844Z,6764.00
2019-04-05T12:07:07.843Z,6384.00
2019-04-05T12:08:07.817Z,5968.00
2019-04-05T12:09:07.866Z,8052.00
2019-04-05T12:10:07.800Z,9508.00
2019-04-05T12:11:07.805Z,7464.00
2019-04-05T12:12:07.774Z,7328.00
2019-04-05T12:13:07.766Z,8536.00
2019-04-05T12:14:07.771Z,8104.00
2019-04-05T12:15:07.745Z,7276.00
2019-04-05T12:16:10.374Z,6688.00
2019-04-05T12:17:09.689Z,7480.00
2019-04-05T12:18:07.766Z,8272.00
2019-04-05T12:19:07.755Z,8068.00
2019-04-05T12:20:07.726Z,7816.00
2019-04-05T12:21:07.690Z,7052.00
2019-04-05T12:22:09.108Z,6908.00
2019-04-05T12:23:07.653Z,7808.00
2019-04-05T12:24:07.642Z,7268.00
2019-04-05T12:25:07.706Z,6760.00
2019-04-05T12:26:07.621Z,6248.00
2019-04-05T12:27:07.640Z,6556.00
2019-04-05T12:28:10.436Z,6960.00
2019-04-05T12:29:07.589Z,6328.00
2019-04-05T12:30:07.641Z,6208.00